Time;durP1;ratioP1;P1;durP2;ratioP2;P2;SDS_P1;SDS_P2;PMS_P1;PMS_P2;Temp;Humidity;BMP_temperature;BMP_pressure;BME280_temperature;BME280_humidity;BME280_pressure;Samples;Min_cycle;Max_cycle;Signal;HPM_P1;HPM_P2
2021/12/06 00:02:25;;;;;;;80.73;33.80;;;0.90;99.90;;;;;;5185695;28;20184;-50
2021/12/06 00:04:56;;;;;;;73.43;35.33;;;0.90;99.90;;;;;;5199977;28;20727;-50
2021/12/06 00:07:26;;;;;;;70.43;34.07;;;0.90;99.90;;;;;;5185838;28;20908;-50
2021/12/06 00:09:57;;;;;;;70.13;35.23;;;0.90;99.90;;;;;;5193982;28;20184;-50
2021/12/06 00:12:28;;;;;;;63.03;31.83;;;0.90;99.90;;;;;;5199293;28;20180;-51
2021/12/06 00:14:58;;;;;;;69.93;35.20;;;0.90;99.90;;;;;;5182142;28;20247;-51
2021/12/06 00:17:31;;;;;;;68.00;33.73;;;1.00;99.90;;;;;;5182950;28;20290;-49
2021/12/06 00:20:04;;;;;;;79.17;33.17;;;0.90;99.90;;;;;;5200347;28;20216;-49
2021/12/06 00:22:35;;;;;;;78.73;33.30;;;0.90;99.90;;;;;;5195677;28;20497;-49
2021/12/06 00:25:09;;;;;;;72.67;33.40;;;0.80;99.90;;;;;;5193118;28;20448;-49
2021/12/06 00:27:40;;;;;;;69.67;32.53;;;0.80;99.90;;;;;;5194739;28;20460;-51
2021/12/06 00:30:16;;;;;;;78.37;33.60;;;0.80;99.90;;;;;;5186250;28;20444;-50
2021/12/06 00:32:47;;;;;;;71.40;33.60;;;0.80;99.90;;;;;;5183094;28;20186;-50
2021/12/06 00:35:21;;;;;;;76.23;32.80;;;0.80;99.90;;;;;;5193080;28;20423;-51
2021/12/06 00:37:55;;;;;;;66.70;31.10;;;0.80;99.90;;;;;;5194890;28;20498;-51
2021/12/06 00:40:35;;;;;;;68.53;32.33;;;0.80;99.90;;;;;;5193035;28;20443;-51
2021/12/06 00:43:06;;;;;;;68.00;31.63;;;0.80;99.90;;;;;;5184708;28;20468;-49
2021/12/06 00:45:37;;;;;;;67.57;32.50;;;0.80;99.90;;;;;;5185672;28;20536;-51
2021/12/06 00:48:08;;;;;;;64.03;29.73;;;0.70;99.90;;;;;;5181134;28;20224;-50
2021/12/06 00:50:41;;;;;;;57.73;30.80;;;0.80;99.90;;;;;;5183476;28;20483;-51
2021/12/06 00:53:12;;;;;;;60.03;29.77;;;0.80;99.90;;;;;;5186008;28;20532;-51
2021/12/06 00:55:43;;;;;;;59.30;29.67;;;0.80;99.90;;;;;;5181918;28;20524;-50
2021/12/06 00:58:13;;;;;;;51.13;30.03;;;0.80;99.90;;;;;;5181685;28;20212;-49
2021/12/06 01:00:47;;;;;;;58.20;30.03;;;0.80;99.90;;;;;;5194433;28;20282;-50
2021/12/06 01:03:23;;;;;;;59.30;29.50;;;0.70;99.90;;;;;;5188852;28;20294;-50
2021/12/06 01:05:54;;;;;;;58.60;30.30;;;0.80;99.90;;;;;;5190334;28;20436;-51
2021/12/06 01:08:25;;;;;;;54.17;26.73;;;0.80;99.90;;;;;;5196611;28;20448;-51
2021/12/06 01:10:56;;;;;;;52.23;27.83;;;0.80;99.90;;;;;;5184181;28;20601;-51
2021/12/06 01:13:28;;;;;;;63.80;29.17;;;0.80;99.90;;;;;;5192254;28;20184;-50
2021/12/06 01:15:58;;;;;;;51.53;27.50;;;0.80;99.90;;;;;;5174065;28;20508;-50
2021/12/06 01:18:29;;;;;;;51.20;26.03;;;0.80;99.90;;;;;;5177303;28;20446;-52
2021/12/06 01:21:19;;;;;;;65.63;28.60;;;0.80;99.90;;;;;;5190616;28;20641;-50
2021/12/06 01:23:59;;;;;;;47.57;26.83;;;0.70;99.90;;;;;;5183947;28;20206;-51
2021/12/06 01:40:40;;;;;;;52.10;26.40;;;0.70;99.90;;;;;;5179610;28;20461;-50
2021/12/06 01:43:10;;;;;;;44.00;24.07;;;0.70;99.90;;;;;;5190048;28;20463;-50
2021/12/06 01:45:41;;;;;;;41.50;23.90;;;0.70;99.90;;;;;;5199002;28;20267;-50
2021/12/06 01:48:11;;;;;;;46.23;25.20;;;0.60;99.90;;;;;;5175706;28;20212;-51
2021/12/06 01:50:42;;;;;;;50.77;23.90;;;0.60;99.90;;;;;;5191270;28;20177;-50
2021/12/06 01:53:13;;;;;;;43.40;23.83;;;0.60;99.90;;;;;;5188126;28;20202;-51
2021/12/06 01:55:43;;;;;;;44.03;23.90;;;0.60;99.90;;;;;;5184681;28;20726;-50
2021/12/06 01:58:14;;;;;;;38.00;22.37;;;0.60;99.90;;;;;;5204028;28;20204;-50
2021/12/06 02:00:49;;;;;;;35.50;21.33;;;0.50;99.90;;;;;;5184399;28;20288;-51
2021/12/06 02:03:20;;;;;;;50.20;23.27;;;0.50;99.90;;;;;;5198678;28;20221;-50
2021/12/06 02:05:50;;;;;;;52.10;25.93;;;0.50;99.90;;;;;;5195635;28;20523;-50
2021/12/06 02:08:21;;;;;;;43.30;23.97;;;0.40;99.90;;;;;;5194259;28;20196;-49
2021/12/06 02:10:59;;;;;;;45.90;24.43;;;0.40;99.90;;;;;;5187265;28;20189;-51
2021/12/06 02:13:38;;;;;;;44.27;26.87;;;0.40;99.90;;;;;;5198794;28;20239;-50
2021/12/06 02:16:09;;;;;;;49.07;25.73;;;0.40;99.90;;;;;;5192700;28;20466;-50
2021/12/06 02:18:45;;;;;;;49.63;27.37;;;0.20;99.90;;;;;;5188511;28;20973;-50
2021/12/06 02:21:29;;;;;;;52.87;27.20;;;0.10;99.90;;;;;;5185333;28;20229;-50
2021/12/06 02:24:05;;;;;;;51.97;28.57;;;0.10;99.90;;;;;;5190506;28;20456;-50
2021/12/06 02:26:39;;;;;;;53.60;28.87;;;0.00;99.90;;;;;;5201240;28;20484;-52
2021/12/06 02:29:10;;;;;;;54.83;28.13;;;-0.10;99.90;;;;;;5196496;28;20500;-49
2021/12/06 02:31:40;;;;;;;59.67;29.30;;;-0.10;99.90;;;;;;5191149;28;20526;-50
2021/12/06 02:34:12;;;;;;;51.93;27.80;;;-0.10;99.90;;;;;;5179211;28;20185;-50
2021/12/06 02:36:45;;;;;;;58.27;31.23;;;-0.20;99.90;;;;;;5189682;23;20234;-49
2021/12/06 02:39:22;;;;;;;57.43;28.80;;;-0.10;99.90;;;;;;5157927;28;20857;-49
2021/12/06 02:41:53;;;;;;;64.70;30.10;;;-0.10;99.90;;;;;;5166011;28;20420;-49
2021/12/06 02:44:24;;;;;;;57.30;30.60;;;-0.10;99.90;;;;;;5167169;28;20459;-51
2021/12/06 02:46:55;;;;;;;66.73;31.33;;;-0.10;99.90;;;;;;5160896;28;20952;-50
2021/12/06 02:49:25;;;;;;;70.73;32.70;;;-0.20;99.90;;;;;;5163083;28;20610;-49
2021/12/06 02:51:57;;;;;;;64.33;31.60;;;-0.20;99.90;;;;;;5146613;28;20182;-50
2021/12/06 02:54:28;;;;;;;75.10;32.43;;;-0.20;99.90;;;;;;5146099;28;20210;-49
2021/12/06 02:59:44;;;;;;;58.90;30.07;;;-0.20;99.90;;;;;;5145660;28;20448;-50
2021/12/06 03:02:19;;;;;;;69.30;33.33;;;-0.20;99.90;;;;;;5152935;28;20439;-50
2021/12/06 03:04:49;;;;;;;61.63;33.17;;;-0.20;99.90;;;;;;5161165;28;20462;-49
2021/12/06 03:07:21;;;;;;;56.70;31.27;;;-0.20;99.90;;;;;;5146518;28;20449;-50
2021/12/06 03:09:54;;;;;;;58.93;31.00;;;0.00;99.90;;;;;;5160622;28;20546;-50
2021/12/06 03:12:27;;;;;;;69.93;31.37;;;0.00;99.90;;;;;;5145882;28;20466;-49
2021/12/06 03:14:59;;;;;;;65.00;29.97;;;-0.10;99.90;;;;;;5145714;28;20487;-49
2021/12/06 03:17:32;;;;;;;58.40;30.83;;;0.00;99.90;;;;;;5144663;28;20457;-50
2021/12/06 03:20:06;;;;;;;50.00;28.13;;;0.00;99.90;;;;;;5143616;28;20437;-50
2021/12/06 03:22:37;;;;;;;63.03;30.50;;;0.10;99.90;;;;;;5142747;28;20512;-50
2021/12/06 03:25:09;;;;;;;65.60;30.17;;;0.10;99.90;;;;;;5160918;28;20441;-49
2021/12/06 03:27:39;;;;;;;65.63;33.13;;;0.10;99.90;;;;;;5151036;28;20240;-49
2021/12/06 03:30:14;;;;;;;71.07;32.43;;;0.20;99.90;;;;;;5146105;28;20549;-48
2021/12/06 03:32:44;;;;;;;61.37;32.03;;;0.20;99.90;;;;;;5134803;28;20188;-49
2021/12/06 03:35:15;;;;;;;64.10;31.17;;;0.20;99.90;;;;;;5147455;28;20452;-50
2021/12/06 03:37:45;;;;;;;52.87;28.53;;;0.10;99.90;;;;;;5145478;28;20226;-49
2021/12/06 03:40:16;;;;;;;60.97;29.73;;;0.20;99.90;;;;;;5159795;28;20244;-48
2021/12/06 03:42:48;;;;;;;51.13;30.27;;;0.10;99.90;;;;;;5137267;28;20252;-49
2021/12/06 03:45:20;;;;;;;64.53;29.40;;;0.00;99.90;;;;;;5145786;28;20665;-50
2021/12/06 03:47:50;;;;;;;57.37;30.57;;;0.00;99.90;;;;;;5146173;28;20523;-49
2021/12/06 03:50:21;;;;;;;67.27;32.40;;;-0.10;99.90;;;;;;5160006;28;20433;-48
2021/12/06 03:52:51;;;;;;;58.37;28.60;;;0.00;99.90;;;;;;5144029;28;20463;-49
2021/12/06 03:55:22;;;;;;;61.33;31.10;;;0.00;99.90;;;;;;5145647;28;20192;-50
2021/12/06 03:57:53;;;;;;;58.53;30.57;;;0.00;99.90;;;;;;5145259;28;20202;-49
2021/12/06 04:00:23;;;;;;;60.83;31.90;;;0.00;99.90;;;;;;5159270;28;20201;-50
2021/12/06 04:02:54;;;;;;;57.60;29.70;;;0.10;99.90;;;;;;5143189;28;20219;-52
2021/12/06 04:05:25;;;;;;;58.17;31.37;;;0.10;99.90;;;;;;5143495;28;20187;-49
2021/12/06 04:07:56;;;;;;;58.07;33.17;;;0.10;99.90;;;;;;5166390;28;20478;-50
2021/12/06 04:10:27;;;;;;;63.13;31.13;;;0.10;99.90;;;;;;5144590;28;20234;-50
2021/12/06 04:13:00;;;;;;;71.67;35.50;;;0.10;99.90;;;;;;5147833;28;20269;-49
2021/12/06 04:15:31;;;;;;;58.70;31.13;;;0.00;99.90;;;;;;5159748;28;20209;-49
2021/12/06 04:18:02;;;;;;;56.23;30.73;;;0.00;99.90;;;;;;5159165;28;20488;-49
2021/12/06 04:20:33;;;;;;;55.60;32.07;;;0.00;99.90;;;;;;5162438;28;20523;-49
2021/12/06 04:23:06;;;;;;;63.20;30.93;;;0.10;99.90;;;;;;5144451;28;20523;-49
2021/12/06 04:25:38;;;;;;;69.23;31.80;;;0.10;99.90;;;;;;5144634;28;20428;-50
2021/12/06 04:28:13;;;;;;;59.13;32.50;;;0.10;99.90;;;;;;5150392;28;20437;-48
2021/12/06 04:30:44;;;;;;;63.80;32.13;;;0.00;99.90;;;;;;5144711;28;20449;-48
2021/12/06 04:33:15;;;;;;;61.80;31.57;;;-0.10;99.90;;;;;;5145006;28;20498;-49
2021/12/06 04:35:46;;;;;;;66.50;32.07;;;-0.10;99.90;;;;;;5144545;28;20621;-48
2021/12/06 04:38:17;;;;;;;63.23;33.03;;;-0.10;99.90;;;;;;5141746;28;20515;-49
2021/12/06 04:40:49;;;;;;;68.23;31.60;;;0.00;99.90;;;;;;5150982;28;20469;-50
2021/12/06 04:43:19;;;;;;;53.17;29.77;;;0.00;99.90;;;;;;5143890;28;20209;-50
2021/12/06 04:45:50;;;;;;;67.30;31.20;;;0.10;99.90;;;;;;5143647;28;20457;-50
2021/12/06 04:48:21;;;;;;;65.00;31.60;;;0.10;99.90;;;;;;5160009;28;20201;-51
2021/12/06 04:50:51;;;;;;;70.70;33.77;;;0.00;99.90;;;;;;5147860;28;20278;-49
2021/12/06 04:53:25;;;;;;;60.33;30.60;;;0.10;99.90;;;;;;5145476;28;20206;-49
2021/12/06 04:56:02;;;;;;;60.47;29.97;;;0.10;99.90;;;;;;5159218;28;20197;-49
2021/12/06 04:58:42;;;;;;;64.33;32.10;;;0.00;99.90;;;;;;5144067;28;20488;-49
2021/12/06 05:01:21;;;;;;;71.90;31.97;;;0.00;99.90;;;;;;5144504;28;20907;-49
2021/12/06 05:03:52;;;;;;;64.60;31.27;;;0.00;99.90;;;;;;5143176;28;20515;-52
2021/12/06 05:06:27;;;;;;;58.60;30.00;;;0.10;99.90;;;;;;5144206;28;20439;-50
2021/12/06 05:09:07;;;;;;;63.00;30.67;;;0.20;99.90;;;;;;5126402;28;20466;-52
2021/12/06 05:11:37;;;;;;;54.80;29.40;;;0.20;99.90;;;;;;5140326;28;20940;-49
2021/12/06 05:14:08;;;;;;;56.23;28.67;;;0.20;99.90;;;;;;5147264;28;20451;-49
2021/12/06 05:16:39;;;;;;;46.53;26.17;;;0.30;99.90;;;;;;5144290;28;20296;-50
2021/12/06 05:19:10;;;;;;;57.10;28.00;;;0.30;99.90;;;;;;5146019;28;20432;-50
2021/12/06 05:21:41;;;;;;;60.03;27.70;;;0.30;99.90;;;;;;5148895;28;20689;-49
2021/12/06 05:24:11;;;;;;;55.47;28.30;;;0.30;99.90;;;;;;5148081;28;20483;-49
2021/12/06 05:26:43;;;;;;;55.87;28.50;;;0.30;99.90;;;;;;5147921;28;20202;-50
2021/12/06 05:29:23;;;;;;;56.10;26.77;;;0.30;99.90;;;;;;5151342;28;20195;-49
2021/12/06 05:31:56;;;;;;;58.80;26.97;;;0.20;99.90;;;;;;5150406;28;20424;-49
2021/12/06 05:34:38;;;;;;;57.13;28.50;;;0.20;99.90;;;;;;5139509;28;20428;-49
2021/12/06 05:37:12;;;;;;;53.10;28.20;;;0.20;99.90;;;;;;5162156;28;20464;-50
2021/12/06 05:39:43;;;;;;;52.57;29.60;;;0.20;99.90;;;;;;5166488;28;20444;-48
2021/12/06 05:42:14;;;;;;;60.80;29.20;;;0.20;99.90;;;;;;5165616;28;20450;-49
2021/12/06 05:44:45;;;;;;;64.23;29.73;;;0.20;99.90;;;;;;5163480;28;20577;-50
2021/12/06 05:47:16;;;;;;;51.83;29.03;;;0.20;99.90;;;;;;5152725;28;20204;-51
2021/12/06 05:49:46;;;;;;;49.17;27.40;;;0.20;99.90;;;;;;5148135;28;20190;-49
2021/12/06 05:52:17;;;;;;;63.97;27.83;;;0.20;99.90;;;;;;5149228;28;20432;-49
2021/12/06 05:54:48;;;;;;;67.17;28.70;;;0.20;99.90;;;;;;5150757;28;20240;-49
2021/12/06 05:57:19;;;;;;;59.87;30.67;;;0.30;99.90;;;;;;5164424;28;20213;-50
2021/12/06 05:59:49;;;;;;;52.90;27.60;;;0.30;99.90;;;;;;5161769;28;20988;-48
2021/12/06 06:02:20;;;;;;;52.40;26.30;;;0.30;99.90;;;;;;5149742;28;20260;-48
2021/12/06 06:04:50;;;;;;;66.10;29.37;;;0.30;99.90;;;;;;5150102;28;20229;-48
2021/12/06 06:07:21;;;;;;;62.40;31.10;;;0.30;99.90;;;;;;5152114;28;20205;-50
2021/12/06 06:09:51;;;;;;;56.60;30.07;;;0.30;99.90;;;;;;5147690;28;20275;-48
2021/12/06 06:12:22;;;;;;;58.33;29.30;;;0.20;99.90;;;;;;5146390;28;20191;-50
2021/12/06 06:14:53;;;;;;;55.30;28.37;;;0.20;99.90;;;;;;5145754;28;20551;-50
2021/12/06 06:17:24;;;;;;;52.93;27.27;;;0.20;99.90;;;;;;5147596;28;20204;-50
2021/12/06 06:19:58;;;;;;;57.57;28.13;;;0.30;99.90;;;;;;5146061;28;20430;-49
2021/12/06 06:22:28;;;;;;;50.10;28.03;;;0.30;99.90;;;;;;5146861;28;20192;-50
2021/12/06 06:24:59;;;;;;;62.70;30.70;;;0.30;99.90;;;;;;5147601;28;21007;-49
2021/12/06 06:27:29;;;;;;;48.67;28.07;;;0.30;99.90;;;;;;5146971;28;20209;-48
2021/12/06 06:30:00;;;;;;;58.03;27.40;;;0.30;99.90;;;;;;5146744;28;20183;-49
2021/12/06 06:32:31;;;;;;;50.70;27.73;;;0.30;99.90;;;;;;5146699;28;20189;-49
2021/12/06 06:35:02;;;;;;;49.50;26.40;;;0.20;99.90;;;;;;5146805;28;20186;-50
2021/12/06 06:37:33;;;;;;;47.60;26.50;;;0.30;99.90;;;;;;5146810;28;20337;-49
2021/12/06 06:40:05;;;;;;;52.67;25.90;;;0.30;99.90;;;;;;5145904;28;20949;-50
2021/12/06 06:42:36;;;;;;;51.37;26.87;;;0.30;99.90;;;;;;5140631;28;20451;-49
2021/12/06 06:45:09;;;;;;;56.27;29.00;;;0.30;99.90;;;;;;5147845;28;20470;-49
2021/12/06 06:47:39;;;;;;;56.27;28.27;;;0.30;99.90;;;;;;5141191;28;20455;-49
2021/12/06 06:50:10;;;;;;;62.57;30.97;;;0.30;99.90;;;;;;5148152;28;20904;-49
2021/12/06 06:52:42;;;;;;;55.33;29.90;;;0.30;99.90;;;;;;5151233;28;20191;-49
2021/12/06 06:55:15;;;;;;;59.43;28.90;;;0.40;99.90;;;;;;5146714;28;20461;-50
2021/12/06 06:57:46;;;;;;;53.97;28.23;;;0.30;99.90;;;;;;5147066;28;20471;-50
2021/12/06 07:00:25;;;;;;;52.60;26.90;;;0.30;99.90;;;;;;5147739;28;20437;-50
2021/12/06 07:02:56;;;;;;;54.60;28.10;;;0.30;99.90;;;;;;5142113;28;20446;-50
2021/12/06 07:05:28;;;;;;;63.77;30.57;;;0.40;99.90;;;;;;5148934;28;20435;-49
2021/12/06 07:07:59;;;;;;;59.93;31.67;;;0.40;99.90;;;;;;5129255;28;20457;-49
2021/12/06 07:10:30;;;;;;;55.93;27.17;;;0.40;99.90;;;;;;5145469;28;21004;-49
2021/12/06 07:13:04;;;;;;;51.30;29.90;;;0.40;99.90;;;;;;5146790;28;20185;-51
2021/12/06 07:15:35;;;;;;;54.20;30.20;;;0.50;99.90;;;;;;5146217;28;20755;-49
2021/12/06 07:18:09;;;;;;;59.93;31.30;;;0.40;99.90;;;;;;5149009;28;21040;-50
2021/12/06 07:20:40;;;;;;;68.80;29.20;;;0.40;99.90;;;;;;5146070;28;20953;-49
2021/12/06 07:23:11;;;;;;;53.40;28.87;;;0.50;99.90;;;;;;5154500;28;20511;-50
2021/12/06 07:25:41;;;;;;;64.27;30.47;;;0.40;99.90;;;;;;5146370;28;20560;-50
2021/12/06 07:28:12;;;;;;;69.70;30.43;;;0.50;99.90;;;;;;5145467;28;20460;-50
2021/12/06 07:30:42;;;;;;;64.07;30.77;;;0.50;99.90;;;;;;5145998;28;20188;-50
2021/12/06 07:33:13;;;;;;;66.37;28.53;;;0.50;99.90;;;;;;5145448;28;20201;-50
2021/12/06 07:35:43;;;;;;;60.30;29.20;;;0.60;99.90;;;;;;5147430;28;20196;-50
2021/12/06 07:38:14;;;;;;;58.10;30.30;;;0.70;99.90;;;;;;5133484;28;20293;-48
2021/12/06 07:40:45;;;;;;;60.23;28.43;;;0.70;99.90;;;;;;5142227;28;20192;-51
2021/12/06 07:43:16;;;;;;;62.37;28.80;;;0.70;99.90;;;;;;5141733;28;20224;-49
2021/12/06 07:45:47;;;;;;;56.47;29.20;;;0.70;99.90;;;;;;5144259;28;20270;-49
2021/12/06 07:48:17;;;;;;;54.50;28.53;;;0.70;99.90;;;;;;5143705;28;21040;-49
2021/12/06 07:50:48;;;;;;;54.63;29.03;;;0.70;99.90;;;;;;5134700;28;20313;-48
2021/12/06 07:53:19;;;;;;;63.73;30.60;;;0.70;99.90;;;;;;5143631;28;20224;-49
2021/12/06 07:55:49;;;;;;;63.10;29.27;;;0.70;99.90;;;;;;5140862;28;20464;-48
2021/12/06 07:58:21;;;;;;;52.40;27.90;;;0.70;99.90;;;;;;5119285;28;20209;-51
2021/12/06 08:00:52;;;;;;;56.77;29.70;;;0.80;99.90;;;;;;5139393;28;20224;-50
2021/12/06 08:03:26;;;;;;;54.90;29.33;;;0.80;99.90;;;;;;5139843;28;20474;-51
2021/12/06 08:05:57;;;;;;;67.77;31.23;;;0.90;99.90;;;;;;5155601;28;20441;-50
2021/12/06 08:08:30;;;;;;;63.30;32.40;;;0.90;99.90;;;;;;5152584;28;20456;-49
2021/12/06 08:11:06;;;;;;;71.37;31.30;;;1.00;99.90;;;;;;5151675;28;20432;-49
2021/12/06 08:13:39;;;;;;;65.40;27.83;;;0.90;99.90;;;;;;5134634;28;20449;-50
2021/12/06 08:16:15;;;;;;;56.20;26.50;;;1.00;99.90;;;;;;5136685;28;20826;-49
2021/12/06 08:18:46;;;;;;;56.93;28.70;;;1.00;99.90;;;;;;5138346;28;20460;-49
2021/12/06 08:21:19;;;;;;;50.10;27.00;;;1.00;99.90;;;;;;5137145;28;20440;-52
2021/12/06 08:23:52;;;;;;;54.57;28.00;;;1.10;99.90;;;;;;5137676;28;21122;-49
2021/12/06 08:26:26;;;;;;;47.63;25.70;;;1.20;99.90;;;;;;5139865;28;20445;-52
2021/12/06 08:28:59;;;;;;;43.80;24.80;;;1.20;99.90;;;;;;5152616;28;20597;-50
2021/12/06 08:31:30;;;;;;;47.23;25.80;;;1.30;99.90;;;;;;5136426;28;20972;-49
2021/12/06 08:34:01;;;;;;;45.17;24.20;;;1.40;99.90;;;;;;5134516;28;20440;-51
2021/12/06 08:36:32;;;;;;;45.07;23.00;;;1.40;99.90;;;;;;5154621;28;21856;-51
2021/12/06 08:39:04;;;;;;;45.07;24.57;;;1.40;99.90;;;;;;5186737;23;20692;-53
2021/12/06 08:41:35;;;;;;;46.27;24.07;;;1.40;99.90;;;;;;5162199;28;20668;-51
2021/12/06 08:44:05;;;;;;;50.53;24.70;;;1.40;99.90;;;;;;5160700;28;20516;-51
2021/12/06 08:46:39;;;;;;;44.93;24.07;;;1.40;99.90;;;;;;5161247;28;20193;-53
2021/12/06 08:49:10;;;;;;;43.43;24.60;;;1.40;99.90;;;;;;5138887;28;20359;-50
2021/12/06 08:51:47;;;;;;;53.33;25.33;;;1.40;99.90;;;;;;5134426;28;20468;-53
2021/12/06 08:54:18;;;;;;;51.97;25.80;;;1.50;99.90;;;;;;5135261;28;20197;-52
2021/12/06 08:56:49;;;;;;;51.10;23.87;;;1.40;99.90;;;;;;5140431;28;20445;-52
2021/12/06 08:59:20;;;;;;;41.80;22.87;;;1.40;99.90;;;;;;5154828;28;20460;-51
2021/12/06 09:01:54;;;;;;;48.13;24.00;;;1.50;99.90;;;;;;5155152;28;20283;-55
2021/12/06 09:04:31;;;;;;;44.30;22.53;;;1.50;99.90;;;;;;5139596;28;20464;-51
2021/12/06 09:07:02;;;;;;;38.90;23.77;;;1.60;99.90;;;;;;5136741;28;20463;-54
2021/12/06 09:09:33;;;;;;;38.47;20.57;;;1.60;99.90;;;;;;5136932;28;20441;-50
2021/12/06 09:12:04;;;;;;;39.60;21.07;;;1.60;99.90;;;;;;5136547;28;20452;-51
2021/12/06 09:14:34;;;;;;;42.07;22.87;;;1.70;99.90;;;;;;5153313;28;20516;-54
2021/12/06 09:17:05;;;;;;;45.37;23.97;;;1.70;99.90;;;;;;5152199;28;20206;-51
2021/12/06 09:19:36;;;;;;;36.70;21.53;;;1.80;99.90;;;;;;5154753;28;20178;-50
2021/12/06 09:22:06;;;;;;;38.13;20.70;;;1.70;99.90;;;;;;5135349;28;20186;-55
2021/12/06 09:24:38;;;;;;;39.53;20.70;;;1.60;99.90;;;;;;5152979;28;20201;-53
2021/12/06 09:27:09;;;;;;;40.60;23.33;;;1.60;99.90;;;;;;5138513;28;20196;-51
2021/12/06 09:29:40;;;;;;;41.73;24.43;;;1.70;99.90;;;;;;5140246;28;20447;-51
2021/12/06 09:32:12;;;;;;;41.43;21.73;;;1.70;99.90;;;;;;5137607;28;20445;-52
2021/12/06 09:34:46;;;;;;;47.57;23.30;;;1.70;99.90;;;;;;5154925;28;20178;-51
2021/12/06 09:37:19;;;;;;;39.07;21.13;;;1.70;99.90;;;;;;5139218;28;20523;-52
2021/12/06 09:39:50;;;;;;;44.80;20.00;;;1.70;99.90;;;;;;5132098;28;20444;-51
2021/12/06 09:42:22;;;;;;;48.17;21.80;;;1.80;99.90;;;;;;5155106;28;21583;-51
2021/12/06 09:44:55;;;;;;;36.77;20.17;;;1.80;99.90;;;;;;5136302;28;20239;-51
2021/12/06 09:47:28;;;;;;;48.40;22.23;;;1.90;99.90;;;;;;5138609;28;21039;-52
2021/12/06 09:49:58;;;;;;;35.10;18.60;;;1.90;99.90;;;;;;5155282;28;20575;-50
2021/12/06 09:52:29;;;;;;;39.40;20.90;;;1.80;99.90;;;;;;5137887;28;21438;-50
2021/12/06 09:55:00;;;;;;;37.40;21.07;;;1.80;99.90;;;;;;5135891;28;20190;-54
2021/12/06 09:57:30;;;;;;;32.23;19.30;;;1.80;99.90;;;;;;5155199;28;21601;-51
2021/12/06 10:00:05;;;;;;;32.70;19.00;;;1.90;99.90;;;;;;5135802;28;20236;-51
2021/12/06 10:02:36;;;;;;;45.47;19.00;;;2.00;99.90;;;;;;5137524;28;20272;-52
2021/12/06 10:05:10;;;;;;;34.87;20.97;;;2.10;99.90;;;;;;5135460;28;20468;-54
2021/12/06 10:07:41;;;;;;;38.70;19.97;;;2.10;99.90;;;;;;5144913;28;20582;-50
2021/12/06 10:10:13;;;;;;;37.50;19.77;;;2.20;99.90;;;;;;5159965;28;20440;-50
2021/12/06 10:12:48;;;;;;;30.53;17.97;;;2.30;99.90;;;;;;5141203;28;20584;-51
2021/12/06 10:15:20;;;;;;;36.27;18.60;;;2.30;99.90;;;;;;5144525;28;20432;-50
2021/12/06 10:17:56;;;;;;;33.90;19.43;;;2.20;99.90;;;;;;5140827;28;20966;-51
2021/12/06 10:20:28;;;;;;;38.03;21.47;;;2.10;99.90;;;;;;5158350;28;20429;-50
2021/12/06 10:22:59;;;;;;;32.83;17.37;;;2.00;99.90;;;;;;5145338;28;21362;-51
2021/12/06 10:25:40;;;;;;;29.23;16.80;;;2.00;99.90;;;;;;5139792;28;20467;-52
2021/12/06 10:28:11;;;;;;;31.73;16.93;;;2.00;99.90;;;;;;5141416;28;20471;-52
2021/12/06 10:30:47;;;;;;;33.90;17.10;;;2.00;99.90;;;;;;5158492;28;20445;-55
2021/12/06 10:33:21;;;;;;;31.00;17.40;;;1.90;99.90;;;;;;5157369;28;20189;-51
2021/12/06 10:35:59;;;;;;;37.10;18.43;;;2.00;99.90;;;;;;5139243;28;20547;-53
2021/12/06 10:38:34;;;;;;;31.00;18.20;;;2.00;99.90;;;;;;5139966;28;20480;-53
2021/12/06 10:41:11;;;;;;;31.13;17.70;;;2.00;99.90;;;;;;5146006;28;20448;-51
2021/12/06 10:44:01;;;;;;;31.80;18.20;;;2.00;99.90;;;;;;5138092;28;20562;-52
2021/12/06 10:46:33;;;;;;;30.73;16.93;;;1.90;99.90;;;;;;5157073;28;20445;-51
2021/12/06 10:49:07;;;;;;;29.90;15.87;;;2.00;99.90;;;;;;5141984;28;20487;-50
2021/12/06 10:51:38;;;;;;;31.63;16.97;;;2.00;99.90;;;;;;5139935;28;20444;-50
2021/12/06 10:54:19;;;;;;;29.83;16.67;;;2.00;99.90;;;;;;5156853;28;20532;-51
2021/12/06 10:56:52;;;;;;;29.00;15.73;;;2.10;99.90;;;;;;5139140;28;20669;-52
2021/12/06 10:59:29;;;;;;;24.53;15.43;;;2.30;99.90;;;;;;5140984;28;20525;-52
2021/12/06 11:02:10;;;;;;;28.50;16.00;;;2.30;99.90;;;;;;5134582;28;20982;-50
2021/12/06 11:04:42;;;;;;;28.93;15.47;;;2.50;99.90;;;;;;5130323;28;20476;-52
2021/12/06 11:07:13;;;;;;;31.67;15.23;;;2.30;99.90;;;;;;5151673;28;20461;-52
2021/12/06 11:09:46;;;;;;;32.40;16.50;;;2.20;99.90;;;;;;5151135;28;20456;-50
2021/12/06 11:12:19;;;;;;;33.23;15.93;;;2.20;99.90;;;;;;5143178;28;20197;-51
2021/12/06 11:14:50;;;;;;;28.73;15.63;;;2.10;99.90;;;;;;5140077;28;20433;-52
2021/12/06 11:17:21;;;;;;;30.10;16.70;;;2.20;99.90;;;;;;5135100;28;20476;-53
2021/12/06 11:19:54;;;;;;;19.90;12.83;;;2.10;99.90;;;;;;5141765;28;20196;-53
2021/12/06 11:22:25;;;;;;;25.00;14.00;;;2.10;99.90;;;;;;5139569;28;20789;-52
2021/12/06 11:24:56;;;;;;;24.87;13.97;;;2.10;99.90;;;;;;5139546;28;20473;-51
2021/12/06 11:27:29;;;;;;;26.90;14.10;;;2.20;99.90;;;;;;5140576;28;20221;-52
2021/12/06 11:30:04;;;;;;;21.87;13.00;;;2.20;99.90;;;;;;5137106;28;20182;-50
2021/12/06 11:32:37;;;;;;;24.17;13.10;;;2.10;99.90;;;;;;5143023;28;20488;-54
2021/12/06 11:35:13;;;;;;;27.60;12.80;;;2.10;99.90;;;;;;5141275;28;20445;-52
2021/12/06 11:37:50;;;;;;;17.87;11.87;;;2.10;99.90;;;;;;5139913;28;20968;-56
2021/12/06 11:40:27;;;;;;;22.77;12.13;;;2.10;99.90;;;;;;5140006;28;20447;-51
2021/12/06 11:43:11;;;;;;;26.70;13.10;;;2.10;99.90;;;;;;5137205;28;20514;-50
2021/12/06 11:46:02;;;;;;;21.03;12.50;;;2.10;99.90;;;;;;5142009;28;20439;-53
2021/12/06 11:48:39;;;;;;;20.27;13.50;;;2.10;99.90;;;;;;5138420;28;20467;-52
2021/12/06 11:51:15;;;;;;;24.17;13.30;;;2.10;99.90;;;;;;5138905;28;20436;-52
2021/12/06 11:53:54;;;;;;;21.33;12.00;;;2.30;99.90;;;;;;5142677;28;20964;-51
2021/12/06 11:56:28;;;;;;;17.80;12.20;;;2.30;99.90;;;;;;5140494;28;20449;-52
2021/12/06 11:59:01;;;;;;;16.00;11.90;;;2.30;99.90;;;;;;5142178;28;20477;-49
2021/12/06 12:01:37;;;;;;;25.43;13.80;;;2.30;99.90;;;;;;5141340;28;20441;-50
2021/12/06 12:04:18;;;;;;;22.73;11.83;;;2.30;99.90;;;;;;5136919;28;20556;-52
2021/12/06 12:07:00;;;;;;;21.17;13.27;;;2.30;99.90;;;;;;5136521;28;20430;-55
2021/12/06 12:09:36;;;;;;;18.30;11.57;;;2.30;99.90;;;;;;5155246;28;20432;-50
2021/12/06 12:12:06;;;;;;;21.17;13.07;;;2.30;99.90;;;;;;5136828;28;20572;-52
2021/12/06 12:14:54;;;;;;;21.07;11.80;;;2.40;99.90;;;;;;5141881;28;20484;-53
2021/12/06 12:17:32;;;;;;;19.73;11.80;;;2.40;99.90;;;;;;5154146;28;20587;-52
2021/12/06 12:20:07;;;;;;;22.40;12.27;;;2.40;99.90;;;;;;5137839;28;20527;-51
2021/12/06 12:22:40;;;;;;;22.73;12.87;;;2.30;99.90;;;;;;5139411;28;20436;-52
2021/12/06 12:25:21;;;;;;;28.83;11.23;;;2.40;99.90;;;;;;5154263;28;20531;-55
2021/12/06 12:28:03;;;;;;;23.63;11.50;;;2.30;99.90;;;;;;5138424;28;20496;-53
2021/12/06 12:30:35;;;;;;;19.77;11.80;;;2.30;99.90;;;;;;5140137;28;20456;-53
2021/12/06 12:33:08;;;;;;;14.10;10.50;;;2.50;99.90;;;;;;5152406;28;20602;-52
2021/12/06 12:35:41;;;;;;;20.30;11.47;;;2.60;99.90;;;;;;5137297;28;20520;-51
2021/12/06 12:38:16;;;;;;;17.37;12.20;;;2.70;99.90;;;;;;5140299;28;20468;-52
2021/12/06 12:40:50;;;;;;;20.90;11.63;;;2.70;99.90;;;;;;5139873;28;20448;-52
2021/12/06 12:43:31;;;;;;;21.30;11.03;;;2.70;99.90;;;;;;5133877;28;20464;-51
2021/12/06 12:46:33;;;;;;;17.93;11.13;;;2.60;99.90;;;;;;5137922;28;20912;-52
2021/12/06 12:49:11;;;;;;;19.90;10.70;;;2.50;99.90;;;;;;5141503;28;20833;-51
2021/12/06 12:52:00;;;;;;;19.70;12.20;;;2.40;99.90;;;;;;5142682;28;20477;-52
2021/12/06 12:54:31;;;;;;;23.97;13.13;;;2.40;99.90;;;;;;5140454;28;20512;-53
2021/12/06 12:57:06;;;;;;;20.10;12.90;;;2.40;99.90;;;;;;5139505;28;20551;-50
2021/12/06 12:59:50;;;;;;;18.30;12.23;;;2.40;99.90;;;;;;5140117;28;20184;-51
2021/12/06 13:02:38;;;;;;;21.87;12.13;;;2.40;99.90;;;;;;5137874;28;20432;-50
2021/12/06 13:05:13;;;;;;;17.07;11.00;;;2.40;99.90;;;;;;5155827;28;20483;-52
2021/12/06 13:07:55;;;;;;;23.17;12.60;;;2.40;99.90;;;;;;5141094;28;20981;-51
2021/12/06 13:10:37;;;;;;;21.50;13.00;;;2.50;99.90;;;;;;5152541;28;20835;-51
2021/12/06 13:13:31;;;;;;;18.23;12.17;;;2.40;99.90;;;;;;5141621;28;20432;-53
2021/12/06 13:16:26;;;;;;;23.23;12.43;;;2.40;99.90;;;;;;5143562;28;20440;-53
2021/12/06 13:19:11;;;;;;;17.73;11.50;;;2.40;99.90;;;;;;5140662;28;20503;-51
2021/12/06 13:21:47;;;;;;;19.53;10.90;;;2.50;99.90;;;;;;5144728;28;20459;-50
2021/12/06 13:24:17;;;;;;;17.30;11.80;;;2.50;99.90;;;;;;5143265;28;20580;-51